Seaspan Commander — CFN6637 — position and weather

sailwx.info

Track history (hours):
 
Tides and Currents Weather Stations Pressure Air Temp Water Temp Dewpoint Dewpoint Depression Visibility Wind Speed Wind Dir Waves Ship Positions

Seaspan Commander

Last reported at 2017-Oct-23 08:00 UTC. Time now 2017-Oct-23 08:23 UTC.
Position N 49°07' W 123°17'.

Length 23 m; draft 4.3 m.

Type: Tug. MMSI: 316005498.

Date/timePositionNaut miles runAvg speedWind from/ knotsBaromVisibWave heightAir tempDewpointWater temp
2017-Oct-23 08:00N 49°07' W 123°17'612.8
2017-Oct-23 07:30N 49°07' W 123°07'611.0
2017-Oct-23 06:56N 49°10' W 122°58'1 2.0
2017-Oct-23 06:30N 49°09' W 122°59'2 4.7
2017-Oct-23 06:00N 49°09' W 123°03'3 5.7
2017-Oct-23 05:29N 49°07' W 123°06'3 5.2
2017-Oct-23 05:00N 49°07' W 123°10'3 5.2
2017-Oct-23 04:30N 49°08' W 123°14'3 6.0
2017-Oct-23 04:00N 49°06' W 123°18'3 5.7
2017-Oct-23 03:29N 49°08' W 123°22'4 8.5
2017-Oct-23 03:00N 49°10' W 123°27'4 8.0
2017-Oct-23 02:30N 49°13' W 123°31'4 8.2
2017-Oct-23 02:00N 49°15' W 123°36'4 8.3
2017-Oct-23 01:30N 49°18' W 123°41'4 8.6
2017-Oct-23 01:00N 49°20' W 123°47'4 8.0
2017-Oct-23 00:30N 49°23' W 123°52'4 7.2
2017-Oct-23 00:00N 49°25' W 123°56'4 7.3
2017-Oct-22 23:30N 49°27' W 124°00'4 7.8
2017-Oct-22 23:00N 49°30' W 124°04'4 8.1
2017-Oct-22 22:30N 49°33' W 124°08'4 7.6
2017-Oct-22 22:00N 49°36' W 124°12'4 7.9
2017-Oct-22 21:30N 49°39' W 124°16'4 7.7
2017-Oct-22 21:00N 49°42' W 124°20'4 7.7
2017-Oct-22 20:30N 49°44' W 124°25'4 7.2
2017-Oct-22 20:00N 49°47' W 124°29'4 7.3
2017-Oct-22 19:30N 49°49' W 124°33'3 5.6
2017-Oct-22 19:00N 49°52' W 124°34'0 0.5
2017-Oct-22 18:30N 49°52' W 124°33'0 0.6
2017-Oct-22 18:01N 49°52' W 124°34'1 1.1
2017-Oct-22 17:30N 49°52' W 124°33'3 5.5
2017-Oct-22 17:00N 49°49' W 124°33'3 5.7
2017-Oct-22 16:30N 49°47' W 124°30'3 5.9
2017-Oct-22 16:00N 49°45' W 124°26'3 5.4
2017-Oct-22 15:30N 49°44' W 124°23'3 5.7
2017-Oct-22 15:00N 49°42' W 124°19'3 6.0
2017-Oct-22 14:30N 49°40' W 124°16'3 5.9
2017-Oct-22 14:00N 49°37' W 124°13'3 6.3
2017-Oct-22 13:30N 49°35' W 124°10'3 6.3
2017-Oct-22 13:00N 49°33' W 124°07'3 5.8
2017-Oct-22 12:30N 49°30' W 124°04'3 6.2
2017-Oct-22 12:00N 49°28' W 124°01'3 6.5
2017-Oct-22 11:30N 49°27' W 123°56'3 6.4
2017-Oct-22 11:00N 49°25' W 123°52'3 6.3
2017-Oct-22 10:30N 49°24' W 123°47'3 6.0
2017-Oct-22 10:00N 49°23' W 123°43'3 6.4
2017-Oct-22 09:30N 49°22' W 123°38'3 6.4
2017-Oct-22 09:00N 49°21' W 123°34'3 6.2
2017-Oct-22 08:30N 49°20' W 123°30'3 5.5
2017-Oct-22 08:00N 49°18' W 123°26'3 5.5
2017-Oct-22 07:30N 49°17' W 123°22'3 5.3
2017-Oct-22 07:00N 49°16' W 123°18'1 2.0
2017-Oct-22 06:30N 49°15' W 123°17'1 1.8
2017-Oct-22 06:00N 49°14' W 123°18'2 4.4
2017-Oct-22 05:30N 49°12' W 123°19'3 5.4
2017-Oct-22 05:00N 49°09' W 123°19'3 5.4
2017-Oct-22 04:29N 49°07' W 123°19'2 4.8
2017-Oct-22 04:00N 49°07' W 123°16'3 6.2
2017-Oct-22 03:30N 49°07' W 123°11'3 6.8
2017-Oct-22 03:00N 49°07' W 123°06'3 6.2
2017-Oct-22 02:30N 49°09' W 123°02'3 5.6
2017-Oct-22 02:00N 49°09' W 122°58'0 0.6
2017-Oct-22 01:30N 49°09' W 122°58'2 3.3
2017-Oct-22 01:00N 49°09' W 123°00'4 7.4
2017-Oct-22 00:30N 49°07' W 123°05'4 6.5
2017-Oct-21 23:57N 49°07' W 123°10'3 6.3
2017-Oct-21 23:29N 49°08' W 123°14'3 6.1
2017-Oct-21 23:00N 49°06' W 123°18'2 4.0
2017-Oct-21 22:30N 49°07' W 123°21'3 6.3
2017-Oct-21 22:00N 49°08' W 123°26'3 6.2
2017-Oct-21 21:30N 49°09' W 123°30'3 6.1
2017-Oct-21 21:00N 49°10' W 123°35'3 5.5
2017-Oct-21 20:25N 49°11' W 123°39'2 5.7
2017-Oct-21 20:00N 49°12' W 123°43'3 5.7
2017-Oct-21 19:30N 49°13' W 123°47'3 5.7
2017-Oct-21 19:00N 49°13' W 123°51'4 6.1
2017-Oct-21 18:25N 49°09' W 123°52'1 2.4
2017-Oct-21 17:59N 49°08' W 123°50'1 1.0
2017-Oct-21 17:27N 49°09' W 123°51'1 1.5
2017-Oct-21 17:00N 49°09' W 123°52'1 1.7
2017-Oct-21 16:30N 49°09' W 123°51'0 0.0
2017-Oct-21 15:51N 49°09' W 123°51'0 0.0
2017-Oct-21 15:11N 49°09' W 123°51'0 0.0
2017-Oct-21 15:00N 49°09' W 123°51'0 0.1
2017-Oct-21 13:55N 49°09' W 123°51'0 0.4
2017-Oct-21 13:29N 49°09' W 123°51'1 2.0
2017-Oct-21 13:01N 49°09' W 123°52'2 2.9
2017-Oct-21 12:27N 49°11' W 123°53'2 4.4
2017-Oct-21 11:58N 49°13' W 123°51'2 4.8
2017-Oct-21 11:29N 49°14' W 123°48'2 4.6
2017-Oct-21 11:00N 49°14' W 123°44'2 4.8
2017-Oct-21 10:30N 49°13' W 123°41'3 5.7
2017-Oct-21 09:59N 49°12' W 123°37'3 6.0
2017-Oct-21 09:30N 49°11' W 123°33'3 6.0
2017-Oct-21 09:00N 49°09' W 123°28'3 6.3
2017-Oct-21 08:29N 49°08' W 123°24'3 6.4
2017-Oct-21 08:00N 49°06' W 123°20'4 8.6
2017-Oct-21 07:30N 49°08' W 123°14'5 9.6
2017-Oct-21 07:00N 49°07' W 123°07'5 9.2
2017-Oct-21 06:30N 49°09' W 123°01'2 4.5
2017-Oct-21 05:59N 49°09' W 122°57'0 0.1
2017-Oct-21 05:30N 49°09' W 122°57'1 1.8
2017-Oct-21 04:59N 49°09' W 122°59'2 3.7
2017-Oct-21 04:30N 49°09' W 123°01'1 2.1
2017-Oct-21 04:00N 49°09' W 123°03'2 3.3
2017-Oct-21 03:30N 49°07' W 123°04'2 4.2
2017-Oct-21 03:00N 49°07' W 123°07'2 4.1
2017-Oct-21 02:30N 49°07' W 123°10'2 4.9
2017-Oct-21 02:00N 49°08' W 123°14'3 6.5
2017-Oct-21 01:28N 49°06' W 123°18'4 8.7
2017-Oct-21 01:00N 49°10' W 123°20'4 8.4
2017-Oct-21 00:30N 49°14' W 123°22'2 3.9
2017-Oct-21 00:00N 49°16' W 123°22'3 6.1
2017-Oct-20 23:30N 49°15' W 123°27'3 6.8
2017-Oct-20 22:59N 49°15' W 123°32'3 6.8
2017-Oct-20 22:30N 49°15' W 123°37'3 6.7
2017-Oct-20 22:00N 49°14' W 123°42'3 6.8
2017-Oct-20 21:30N 49°14' W 123°47'3 6.9
2017-Oct-20 21:01N 49°12' W 123°52'3 6.0
2017-Oct-20 20:30N 49°09' W 123°53'1 2.5
2017-Oct-20 20:00N 49°09' W 123°51'0 0.2
2017-Oct-20 19:28N 49°09' W 123°51'1 2.4
2017-Oct-20 19:00N 49°09' W 123°52'3 5.7
2017-Oct-20 18:30N 49°12' W 123°53'3 5.8
2017-Oct-20 17:59N 49°14' W 123°48'3 6.0
2017-Oct-20 17:29N 49°12' W 123°44'3 6.1
2017-Oct-20 16:59N 49°12' W 123°40'3 6.4
2017-Oct-20 16:30N 49°10' W 123°35'3 6.3
2017-Oct-20 16:00N 49°09' W 123°31'3 6.7
2017-Oct-20 15:30N 49°08' W 123°26'3 6.8
2017-Oct-20 14:59N 49°06' W 123°21'6 5.7
2017-Oct-20 14:00N 49°08' W 123°13'3 5.9
2017-Oct-20 13:30N 49°07' W 123°09'3 5.6
2017-Oct-20 13:00N 49°07' W 123°05'3 5.8
2017-Oct-20 12:30N 49°09' W 123°01'3 5.5
2017-Oct-20 12:00N 49°09' W 122°57'0 0.7
2017-Oct-20 11:29N 49°09' W 122°58'1 2.4
2017-Oct-20 11:00N 49°09' W 122°59'3 5.1
2017-Oct-20 10:30N 49°09' W 123°03'3 5.3
2017-Oct-20 10:00N 49°07' W 123°06'3 5.3
2017-Oct-20 09:29N 49°07' W 123°10'3 5.3
2017-Oct-20 09:00N 49°08' W 123°14'2 4.8
2017-Oct-20 08:29N 49°07' W 123°17'2 4.5
2017-Oct-20 08:00N 49°06' W 123°20'2 4.5
2017-Oct-20 07:30N 49°05' W 123°23'3 5.6
2017-Oct-20 07:00N 49°04' W 123°27'3 7.0
2017-Oct-20 06:30N 49°02' W 123°32'3 6.2
2017-Oct-20 06:00N 49°00' W 123°36'1 2.3
2017-Oct-20 05:29N 48°59' W 123°37'1 2.7
2017-Oct-20 04:59N 48°58' W 123°37'1 2.2
2017-Oct-20 04:30N 48°57' W 123°37'1 2.2
2017-Oct-20 04:00N 48°56' W 123°37'1 2.3
2017-Oct-20 03:29N 48°55' W 123°37'1 2.5
2017-Oct-20 03:00N 48°53' W 123°37'1 2.3
2017-Oct-20 02:30N 48°52' W 123°38'0 0.8
2017-Oct-20 02:01N 48°53' W 123°38'1 1.0
2017-Oct-20 01:31N 48°52' W 123°38'1 2.9
2017-Oct-20 01:00N 48°54' W 123°37'3 5.2
2017-Oct-20 00:30N 48°56' W 123°37'3 5.6
2017-Oct-20 00:00N 48°59' W 123°37'3 5.7
2017-Oct-19 23:30N 49°02' W 123°34'2 4.5
2017-Oct-19 23:00N 49°03' W 123°31'1 2.3
2017-Oct-19 22:30N 49°03' W 123°29'1 2.6
2017-Oct-19 22:00N 49°03' W 123°28'1 2.7
2017-Oct-19 21:30N 49°04' W 123°26'1 2.7
2017-Oct-19 21:00N 49°04' W 123°24'2 3.2
2017-Oct-19 20:30N 49°04' W 123°21'2 4.2
2017-Oct-19 20:00N 49°06' W 123°19'4 7.6
2017-Oct-19 19:30N 49°08' W 123°14'4 8.6
2017-Oct-19 19:00N 49°07' W 123°08'4 8.3
2017-Oct-19 18:30N 49°09' W 123°02'3 6.9
2017-Oct-19 18:01N 49°09' W 122°57'0 0.3
2017-Oct-19 17:30N 49°09' W 122°58'0 0.0
2017-Oct-19 17:00N 49°09' W 122°58'0 0.0
2017-Oct-19 16:30N 49°09' W 122°58'0 0.0
2017-Oct-19 15:59N 49°09' W 122°58'0 0.0
2017-Oct-19 14:45N 49°09' W 122°58'0 1.4
2017-Oct-19 14:29N 49°10' W 122°58'1 1.3
2017-Oct-19 14:00N 49°09' W 122°59'2 3.3
2017-Oct-19 13:30N 49°09' W 123°02'2 3.4
2017-Oct-19 13:00N 49°08' W 123°04'2 4.1
2017-Oct-19 12:29N 49°07' W 123°06'2 3.6
2017-Oct-19 11:58N 49°07' W 123°09'2 3.6
2017-Oct-19 11:30N 49°07' W 123°12'2 4.4
2017-Oct-19 11:00N 49°08' W 123°15'3 6.6
2017-Oct-19 10:30N 49°06' W 123°19'2 4.4
2017-Oct-19 10:00N 49°06' W 123°23'3 6.6
2017-Oct-19 09:30N 49°08' W 123°27'4 7.1
2017-Oct-19 09:00N 49°09' W 123°32'4 7.6
2017-Oct-19 08:28N 49°10' W 123°38'3 7.5
2017-Oct-19 08:00N 49°11' W 123°43'4 7.6
2017-Oct-19 07:30N 49°13' W 123°49'3 7.1
2017-Oct-19 07:00N 49°11' W 123°53'2 3.9
2017-Oct-19 06:29N 49°09' W 123°51'0 0.1
2017-Oct-19 05:59N 49°09' W 123°51'0 0.8
2017-Oct-19 05:30N 49°09' W 123°51'2 4.0
2017-Oct-19 05:00N 49°11' W 123°53'2 4.6
2017-Oct-19 04:30N 49°13' W 123°51'3 5.9
2017-Oct-19 04:00N 49°13' W 123°47'3 6.1
2017-Oct-19 03:30N 49°12' W 123°43'3 6.0
2017-Oct-19 03:00N 49°11' W 123°38'3 6.0
2017-Oct-19 02:30N 49°10' W 123°34'3 5.6
2017-Oct-19 02:00N 49°09' W 123°30'3 5.6
2017-Oct-19 01:29N 49°08' W 123°26'3 5.6
2017-Oct-19 01:00N 49°07' W 123°22'3 5.6
2017-Oct-19 00:30N 49°06' W 123°18'3 5.3
2017-Oct-19 00:00N 49°08' W 123°15'2 4.6
2017-Oct-18 23:30N 49°07' W 123°11'2 4.6
2017-Oct-18 23:00N 49°07' W 123°08'3 5.0
2017-Oct-18 22:30N 49°07' W 123°04'3 5.3
2017-Oct-18 22:00N 49°09' W 123°01'3 5.4
2017-Oct-18 21:30N 49°09' W 122°57'0 0.3
2017-Oct-18 20:59N 49°09' W 122°57'1 2.8
2017-Oct-18 20:30N 49°09' W 122°59'1 1.2
2017-Oct-18 19:58N 49°09' W 123°00'0 0.1
2017-Oct-18 19:28N 49°09' W 123°00'2 4.0
2017-Oct-18 19:00N 49°08' W 123°03'4 7.2
2017-Oct-18 18:30N 49°07' W 123°08'3 5.1
2017-Oct-18 17:58N 49°07' W 123°11'0 0.0
2017-Oct-18 17:29N 49°07' W 123°11'0 0.0
2017-Oct-18 17:00N 49°07' W 123°11'0 0.0
2017-Oct-18 16:30N 49°07' W 123°11'0 0.4
2017-Oct-18 16:01N 49°07' W 123°12'0 0.2
2017-Oct-18 15:30N 49°07' W 123°11'4 7.0
2017-Oct-18 15:00N 49°07' W 123°06'6 5.7
2017-Oct-18 13:59N 49°10' W 122°58'0 0.0
2017-Oct-18 13:30N 49°10' W 122°58'0 0.0
2017-Oct-18 13:00N 49°10' W 122°58'0 0.0
2017-Oct-18 12:27N 49°10' W 122°58'0 0.0
2017-Oct-18 12:00N 49°10' W 122°58'0 0.0
2017-Oct-18 11:30N 49°10' W 122°58'0 0.3
2017-Oct-18 11:00N 49°09' W 122°58'2 3.7
2017-Oct-18 10:30N 49°09' W 123°01'3 5.6
2017-Oct-18 10:00N 49°07' W 123°04'3 5.5
2017-Oct-18 09:29N 49°06' W 123°09'3 5.2
2017-Oct-18 09:00N 49°07' W 123°12'2 4.8
2017-Oct-18 08:30N 49°07' W 123°16'2 4.8
2017-Oct-18 08:00N 49°06' W 123°19'3 5.6
2017-Oct-18 07:30N 49°09' W 123°21'3 6.2
2017-Oct-18 07:00N 49°12' W 123°21'3 6.5
2017-Oct-18 06:30N 49°15' W 123°21'2 4.0
2017-Oct-18 06:00N 49°17' W 123°22'2 4.4
2017-Oct-18 05:30N 49°18' W 123°25'3 6.5
2017-Oct-18 05:00N 49°19' W 123°29'3 6.2
2017-Oct-18 04:30N 49°21' W 123°34'3 6.4
2017-Oct-18 04:00N 49°22' W 123°38'3 6.6
2017-Oct-18 03:30N 49°23' W 123°43'3 6.6
2017-Oct-18 03:00N 49°25' W 123°47'3 6.2
2017-Oct-18 02:30N 49°26' W 123°52'3 6.1
2017-Oct-18 02:00N 49°27' W 123°56'3 6.1
2017-Oct-18 01:30N 49°28' W 124°00'3 6.4
2017-Oct-18 01:00N 49°30' W 124°04'3 6.1
2017-Oct-18 00:30N 49°32' W 124°07'3 5.7
2017-Oct-18 00:00N 49°35' W 124°10'3 6.1
2017-Oct-17 23:30N 49°37' W 124°13'3 6.0
2017-Oct-17 23:00N 49°39' W 124°16'3 6.1
2017-Oct-17 22:30N 49°42' W 124°19'3 6.5
2017-Oct-17 22:00N 49°44' W 124°23'3 6.2
2017-Oct-17 21:30N 49°46' W 124°27'3 6.3
2017-Oct-17 21:00N 49°47' W 124°31'3 6.4
2017-Oct-17 20:30N 49°50' W 124°34'2 4.6
2017-Oct-17 20:00N 49°52' W 124°34'0 0.9
2017-Oct-17 19:30N 49°52' W 124°33'0 0.4
2017-Oct-17 19:00N 49°52' W 124°33'0 0.4
2017-Oct-17 18:30N 49°52' W 124°34'1 1.2
2017-Oct-17 18:00N 49°52' W 124°33'1 1.3
2017-Oct-17 17:30N 49°51' W 124°33'3 5.1
2017-Oct-17 17:00N 49°48' W 124°33'2 4.6
2017-Oct-17 16:30N 49°47' W 124°31'3 5.3
2017-Oct-17 16:00N 49°45' W 124°27'3 5.4
2017-Oct-17 15:30N 49°44' W 124°23'2 4.8
2017-Oct-17 15:00N 49°43' W 124°20'3 5.7
2017-Oct-17 14:30N 49°41' W 124°17'3 6.2
2017-Oct-17 14:00N 49°38' W 124°14'3 6.3
2017-Oct-17 13:30N 49°36' W 124°11'3 6.9
2017-Oct-17 13:00N 49°33' W 124°07'3 7.1
2017-Oct-17 12:30N 49°30' W 124°04'4 7.0
2017-Oct-17 12:00N 49°28' W 124°00'4 7.3
2017-Oct-17 11:30N 49°27' W 123°55'3 6.8
2017-Oct-17 11:00N 49°26' W 123°50'3 6.9
2017-Oct-17 10:30N 49°24' W 123°45'3 6.4
2017-Oct-17 10:00N 49°23' W 123°40'3 6.4
2017-Oct-17 09:30N 49°22' W 123°36'3 6.4
2017-Oct-17 09:00N 49°21' W 123°31'3 6.2
2017-Oct-17 08:30N 49°20' W 123°27'3 6.3
2017-Oct-17 08:00N 49°18' W 123°23'3 6.1
2017-Oct-17 07:31N 49°17' W 123°19'2 3.2
2017-Oct-17 07:00N 49°16' W 123°18'1 1.6
2017-Oct-17 06:30N 49°15' W 123°18'1 2.0
2017-Oct-17 06:00N 49°14' W 123°18'1 1.4
2017-Oct-17 05:30N 49°13' W 123°18'1 2.1
2017-Oct-17 05:00N 49°14' W 123°18'1 1.8
2017-Oct-17 04:30N 49°13' W 123°18'1 2.3
2017-Oct-17 04:00N 49°12' W 123°18'1 2.9
2017-Oct-17 03:30N 49°11' W 123°19'2 4.4
2017-Oct-17 03:00N 49°08' W 123°19'2 4.6
2017-Oct-17 02:30N 49°06' W 123°18'3 6.5
2017-Oct-17 02:00N 49°08' W 123°14'3 6.2
2017-Oct-17 01:30N 49°07' W 123°09'3 5.6
2017-Oct-17 01:00N 49°07' W 123°05'3 5.1
2017-Oct-17 00:30N 49°09' W 123°02'2 4.5
2017-Oct-17 00:00N 49°09' W 122°59'1 2.1
2017-Oct-16 23:31N 49°09' W 122°57'0 0.8
2017-Oct-16 23:00N 49°10' W 122°57'1 1.9
2017-Oct-16 22:30N 49°09' W 122°58'4 8.6
2017-Oct-16 22:00N 49°08' W 123°04'5 9.1
2017-Oct-16 21:30N 49°07' W 123°11'4 8.3
2017-Oct-16 21:00N 49°07' W 123°17'3 5.9
2017-Oct-16 20:30N 49°07' W 123°22'4 8.0
2017-Oct-16 20:00N 49°08' W 123°27'4 8.3
2017-Oct-16 19:30N 49°10' W 123°33'4 8.1
2017-Oct-16 19:00N 49°11' W 123°39'4 8.2
2017-Oct-16 18:30N 49°13' W 123°45'4 7.9
2017-Oct-16 18:00N 49°13' W 123°51'4 7.1
2017-Oct-16 17:30N 49°10' W 123°55'1 1.4
2017-Oct-16 17:01N 49°10' W 123°56'0 0.0
2017-Oct-16 16:30N 49°10' W 123°56'0 0.0
2017-Oct-16 16:00N 49°10' W 123°56'0 0.0
2017-Oct-16 15:30N 49°10' W 123°56'0 0.0
2017-Oct-16 15:00N 49°10' W 123°56'0 0.0
2017-Oct-16 14:30N 49°10' W 123°56'0 0.4
2017-Oct-16 13:31N 49°10' W 123°55'2 3.2
2017-Oct-16 13:00N 49°11' W 123°54'2 4.7
2017-Oct-16 12:29N 49°13' W 123°51'2 4.9
2017-Oct-16 12:00N 49°13' W 123°47'3 5.2
2017-Oct-16 11:30N 49°13' W 123°43'3 5.5
2017-Oct-16 11:00N 49°12' W 123°39'3 5.6
2017-Oct-16 10:30N 49°11' W 123°35'3 5.6
2017-Oct-16 10:00N 49°10' W 123°31'3 5.7
2017-Oct-16 09:30N 49°09' W 123°27'3 6.1
2017-Oct-16 09:00N 49°07' W 123°24'3 6.2
2017-Oct-16 08:30N 49°06' W 123°19'3 6.6
2017-Oct-16 08:00N 49°08' W 123°15'3 6.8
2017-Oct-16 07:30N 49°07' W 123°10'4 7.2
2017-Oct-16 07:00N 49°07' W 123°04'4 7.9
2017-Oct-16 06:31N 49°09' W 122°59'2 3.1
2017-Oct-16 06:00N 49°10' W 122°57'0 0.0
2017-Oct-16 05:30N 49°10' W 122°57'0 0.0
2017-Oct-16 05:00N 49°10' W 122°57'0 0.1
2017-Oct-16 04:30N 49°10' W 122°57'4 7.9
2017-Oct-16 04:00N 49°09' W 123°03'4 7.7
2017-Oct-16 03:30N 49°06' W 123°08'4 8.3
2017-Oct-16 03:00N 49°08' W 123°14'4 7.6
2017-Oct-16 02:31N 49°07' W 123°19'0 0.5
2017-Oct-16 02:00N 49°07' W 123°19'1 2.9
2017-Oct-16 01:30N 49°08' W 123°18'2 5.0
2017-Oct-16 01:01N 49°11' W 123°18'3 6.9
2017-Oct-16 00:30N 49°14' W 123°18'2 3.3
2017-Oct-16 00:00N 49°15' W 123°15'1 1.1
2017-Oct-15 23:29N 49°15' W 123°16'3 6.4
2017-Oct-15 23:00N 49°13' W 123°19'4 8.7
2017-Oct-15 22:30N 49°08' W 123°19'2 4.9
2017-Oct-15 22:00N 49°07' W 123°16'4 6.9
2017-Oct-15 21:30N 49°07' W 123°11'3 6.9
2017-Oct-15 21:00N 49°07' W 123°06'4 7.5
2017-Oct-15 20:30N 49°09' W 123°01'2 3.0
2017-Oct-15 19:51N 49°10' W 122°58'0 0.1
2017-Oct-15 19:30N 49°10' W 122°58'2 3.6
2017-Oct-15 19:00N 49°10' W 122°55'0 0.0
2017-Oct-15 18:30N 49°10' W 122°55'2 0.4
2017-Oct-15 13:57N 49°12' W 122°55'0 0.0
2017-Oct-15 13:30N 49°12' W 122°55'0 0.0
2017-Oct-15 13:00N 49°12' W 122°55'0 0.0
2017-Oct-15 12:29N 49°12' W 122°55'0 0.0
2017-Oct-15 12:00N 49°12' W 122°55'0 0.0
2017-Oct-15 11:30N 49°12' W 122°55'0 0.0
2017-Oct-15 08:10N 49°12' W 122°55'0 0.0
2017-Oct-15 07:57N 49°12' W 122°55'0 0.0
2017-Oct-15 07:26N 49°12' W 122°55'0 0.0
2017-Oct-15 06:52N 49°12' W 122°55'0 0.0
2017-Oct-15 06:27N 49°12' W 122°55'3 5.8
2017-Oct-15 06:00N 49°10' W 122°56'2 3.2
2017-Oct-15 05:30N 49°10' W 122°59'3 5.9
2017-Oct-15 05:00N 49°08' W 123°03'3 5.4
2017-Oct-15 04:30N 49°07' W 123°06'3 5.3
2017-Oct-15 04:00N 49°07' W 123°10'3 5.6
2017-Oct-15 03:30N 49°08' W 123°14'3 5.9
2017-Oct-15 03:00N 49°06' W 123°18'3 5.9
2017-Oct-15 02:28N 49°05' W 123°22'4 8.0
2017-Oct-15 02:00N 49°03' W 123°28'4 7.9
2017-Oct-15 01:30N 49°02' W 123°33'3 5.8
2017-Oct-15 01:00N 48°60' W 123°36'2 3.7
2017-Oct-15 00:30N 48°58' W 123°37'2 3.5
2017-Oct-15 00:00N 48°56' W 123°37'2 3.7
2017-Oct-14 23:30N 48°55' W 123°37'2 3.7
2017-Oct-14 23:01N 48°53' W 123°37'1 1.4
2017-Oct-14 22:31N 48°53' W 123°38'0 0.3
2017-Oct-14 22:00N 48°53' W 123°38'1 1.1
2017-Oct-14 21:30N 48°53' W 123°37'3 5.6
2017-Oct-14 21:00N 48°55' W 123°37'3 6.4
2017-Oct-14 20:30N 48°59' W 123°37'3 5.5
2017-Oct-14 20:01N 49°01' W 123°35'1 2.9
2017-Oct-14 19:30N 49°02' W 123°33'2 3.2
2017-Oct-14 19:00N 49°03' W 123°31'2 3.1
2017-Oct-14 18:30N 49°03' W 123°29'2 3.3
2017-Oct-14 18:00N 49°04' W 123°27'1 2.6
2017-Oct-14 17:30N 49°05' W 123°25'1 2.6
2017-Oct-14 17:00N 49°05' W 123°23'2 4.2
2017-Oct-14 16:30N 49°06' W 123°20'3 6.4
2017-Oct-14 16:00N 49°07' W 123°16'3 6.6
2017-Oct-14 15:30N 49°07' W 123°11'4 7.7
2017-Oct-14 15:00N 49°07' W 123°05'4 7.5
2017-Oct-14 14:30N 49°09' W 123°00'2 3.5
2017-Oct-14 14:00N 49°09' W 122°57'0 0.8
2017-Oct-14 13:27N 49°10' W 122°58'1 1.7
2017-Oct-14 13:00N 49°09' W 122°59'2 4.0
2017-Oct-14 12:30N 49°09' W 123°02'2 3.8
2017-Oct-14 12:00N 49°08' W 123°04'2 4.4
2017-Oct-14 11:30N 49°07' W 123°07'2 3.9
2017-Oct-14 10:59N 49°07' W 123°10'2 4.2
2017-Oct-14 10:30N 49°08' W 123°13'2 4.1
2017-Oct-14 10:00N 49°07' W 123°16'2 3.9
2017-Oct-14 09:29N 49°06' W 123°19'1 2.8
2017-Oct-14 09:00N 49°07' W 123°19'2 4.3
2017-Oct-14 08:30N 49°10' W 123°19'2 4.8
2017-Oct-14 08:00N 49°12' W 123°18'3 5.7
2017-Oct-14 07:31N 49°15' W 123°18'1 2.9
2017-Oct-14 07:00N 49°16' W 123°19'1 1.7
2017-Oct-14 06:30N 49°16' W 123°20'2 3.3
2017-Oct-14 06:00N 49°17' W 123°23'2 4.4
2017-Oct-14 05:30N 49°18' W 123°26'2 5.0
2017-Oct-14 05:00N 49°18' W 123°29'3 5.1
2017-Oct-14 04:30N 49°20' W 123°33'2 4.9
2017-Oct-14 04:00N 49°21' W 123°36'2 5.0
2017-Oct-14 03:30N 49°22' W 123°40'3 5.3
2017-Oct-14 03:00N 49°23' W 123°43'3 5.4
2017-Oct-14 02:30N 49°24' W 123°47'3 5.3
2017-Oct-14 02:00N 49°25' W 123°51'4 5.7
2017-Oct-14 01:22N 49°27' W 123°56'3 6.2
2017-Oct-14 00:51N 49°28' W 124°00'2 6.0
2017-Oct-14 00:30N 49°29' W 124°03'3 6.0
2017-Oct-14 00:00N 49°32' W 124°06'3 6.4
2017-Oct-13 23:28N 49°34' W 124°09'3 6.4
2017-Oct-13 23:00N 49°37' W 124°12'3 6.7
2017-Oct-13 22:30N 49°39' W 124°15'4 7.6
2017-Oct-13 22:00N 49°42' W 124°19'4 8.0
2017-Oct-13 21:30N 49°45' W 124°24'4 7.9
2017-Oct-13 21:00N 49°47' W 124°29'4 7.2
2017-Oct-13 20:30N 49°49' W 124°33'3 5.9
2017-Oct-13 20:00N 49°52' W 124°34'0 0.1
2017-Oct-13 17:42N 49°52' W 124°33'0 0.0
2017-Oct-13 17:27N 49°52' W 124°33'0 0.8
2017-Oct-13 17:00N 49°52' W 124°34'1 1.7
2017-Oct-13 16:30N 49°51' W 124°33'2 4.7
2017-Oct-13 16:00N 49°49' W 124°32'2 4.7
2017-Oct-13 15:30N 49°47' W 124°30'3 6.0
2017-Oct-13 15:00N 49°45' W 124°26'3 6.2
2017-Oct-13 14:30N 49°44' W 124°22'3 5.8
2017-Oct-13 14:00N 49°42' W 124°19'3 5.7
2017-Oct-13 13:30N 49°40' W 124°16'3 5.7
2017-Oct-13 13:00N 49°38' W 124°13'3 5.7
2017-Oct-13 12:30N 49°35' W 124°10'3 5.7
2017-Oct-13 12:00N 49°33' W 124°07'3 5.7
2017-Oct-13 11:30N 49°31' W 124°05'3 5.9
2017-Oct-13 11:00N 49°29' W 124°02'3 5.7
2017-Oct-13 10:30N 49°27' W 123°58'3 5.9
2017-Oct-13 10:00N 49°26' W 123°54'3 6.1
2017-Oct-13 09:30N 49°25' W 123°50'3 6.1
2017-Oct-13 09:00N 49°24' W 123°45'3 6.2
2017-Oct-13 08:30N 49°23' W 123°41'3 5.9
2017-Oct-13 08:00N 49°22' W 123°36'  
Track history (hours):
 
Tides and Currents Weather Stations Pressure Air Temp Water Temp Dewpoint Dewpoint Depression Visibility Wind Speed Wind Dir Waves Ship Positions

Seaspan Commander

Last reported at 2017-Oct-23 08:00 UTC. Time now 2017-Oct-23 08:23 UTC.
Position N 49°07' W 123°17'.

Length 23 m; draft 4.3 m.

Type: Tug. MMSI: 316005498.

Date/timePositionNaut miles runAvg speedWind from/ knotsBaromVisibWave heightAir tempDewpointWater temp
2017-Oct-23 08:00N 49°07' W 123°17'612.8
2017-Oct-23 07:30N 49°07' W 123°07'611.0
2017-Oct-23 06:56N 49°10' W 122°58'1 2.0
2017-Oct-23 06:30N 49°09' W 122°59'2 4.7
2017-Oct-23 06:00N 49°09' W 123°03'3 5.7
2017-Oct-23 05:29N 49°07' W 123°06'3 5.2
2017-Oct-23 05:00N 49°07' W 123°10'3 5.2
2017-Oct-23 04:30N 49°08' W 123°14'3 6.0
2017-Oct-23 04:00N 49°06' W 123°18'3 5.7
2017-Oct-23 03:29N 49°08' W 123°22'4 8.5
2017-Oct-23 03:00N 49°10' W 123°27'4 8.0
2017-Oct-23 02:30N 49°13' W 123°31'4 8.2
2017-Oct-23 02:00N 49°15' W 123°36'4 8.3
2017-Oct-23 01:30N 49°18' W 123°41'4 8.6
2017-Oct-23 01:00N 49°20' W 123°47'4 8.0
2017-Oct-23 00:30N 49°23' W 123°52'4 7.2
2017-Oct-23 00:00N 49°25' W 123°56'4 7.3
2017-Oct-22 23:30N 49°27' W 124°00'4 7.8
2017-Oct-22 23:00N 49°30' W 124°04'4 8.1
2017-Oct-22 22:30N 49°33' W 124°08'4 7.6
2017-Oct-22 22:00N 49°36' W 124°12'4 7.9
2017-Oct-22 21:30N 49°39' W 124°16'4 7.7
2017-Oct-22 21:00N 49°42' W 124°20'4 7.7
2017-Oct-22 20:30N 49°44' W 124°25'4 7.2
2017-Oct-22 20:00N 49°47' W 124°29'4 7.3
2017-Oct-22 19:30N 49°49' W 124°33'3 5.6
2017-Oct-22 19:00N 49°52' W 124°34'0 0.5
2017-Oct-22 18:30N 49°52' W 124°33'0 0.6
2017-Oct-22 18:01N 49°52' W 124°34'1 1.1
2017-Oct-22 17:30N 49°52' W 124°33'3 5.5
2017-Oct-22 17:00N 49°49' W 124°33'3 5.7
2017-Oct-22 16:30N 49°47' W 124°30'3 5.9
2017-Oct-22 16:00N 49°45' W 124°26'3 5.4
2017-Oct-22 15:30N 49°44' W 124°23'3 5.7
2017-Oct-22 15:00N 49°42' W 124°19'3 6.0
2017-Oct-22 14:30N 49°40' W 124°16'3 5.9
2017-Oct-22 14:00N 49°37' W 124°13'3 6.3
2017-Oct-22 13:30N 49°35' W 124°10'3 6.3
2017-Oct-22 13:00N 49°33' W 124°07'3 5.8
2017-Oct-22 12:30N 49°30' W 124°04'3 6.2
2017-Oct-22 12:00N 49°28' W 124°01'3 6.5
2017-Oct-22 11:30N 49°27' W 123°56'3 6.4
2017-Oct-22 11:00N 49°25' W 123°52'3 6.3
2017-Oct-22 10:30N 49°24' W 123°47'3 6.0
2017-Oct-22 10:00N 49°23' W 123°43'3 6.4
2017-Oct-22 09:30N 49°22' W 123°38'3 6.4
2017-Oct-22 09:00N 49°21' W 123°34'3 6.2
2017-Oct-22 08:30N 49°20' W 123°30'3 5.5
2017-Oct-22 08:00N 49°18' W 123°26'3 5.5
2017-Oct-22 07:30N 49°17' W 123°22'3 5.3
2017-Oct-22 07:00N 49°16' W 123°18'1 2.0
2017-Oct-22 06:30N 49°15' W 123°17'1 1.8
2017-Oct-22 06:00N 49°14' W 123°18'2 4.4
2017-Oct-22 05:30N 49°12' W 123°19'3 5.4
2017-Oct-22 05:00N 49°09' W 123°19'3 5.4
2017-Oct-22 04:29N 49°07' W 123°19'2 4.8
2017-Oct-22 04:00N 49°07' W 123°16'3 6.2
2017-Oct-22 03:30N 49°07' W 123°11'3 6.8
2017-Oct-22 03:00N 49°07' W 123°06'3 6.2
2017-Oct-22 02:30N 49°09' W 123°02'3 5.6
2017-Oct-22 02:00N 49°09' W 122°58'0 0.6
2017-Oct-22 01:30N 49°09' W 122°58'2 3.3
2017-Oct-22 01:00N 49°09' W 123°00'4 7.4
2017-Oct-22 00:30N 49°07' W 123°05'4 6.5
2017-Oct-21 23:57N 49°07' W 123°10'3 6.3
2017-Oct-21 23:29N 49°08' W 123°14'3 6.1
2017-Oct-21 23:00N 49°06' W 123°18'2 4.0
2017-Oct-21 22:30N 49°07' W 123°21'3 6.3
2017-Oct-21 22:00N 49°08' W 123°26'3 6.2
2017-Oct-21 21:30N 49°09' W 123°30'3 6.1
2017-Oct-21 21:00N 49°10' W 123°35'3 5.5
2017-Oct-21 20:25N 49°11' W 123°39'2 5.7
2017-Oct-21 20:00N 49°12' W 123°43'3 5.7
2017-Oct-21 19:30N 49°13' W 123°47'3 5.7
2017-Oct-21 19:00N 49°13' W 123°51'4 6.1
2017-Oct-21 18:25N 49°09' W 123°52'1 2.4
2017-Oct-21 17:59N 49°08' W 123°50'1 1.0
2017-Oct-21 17:27N 49°09' W 123°51'1 1.5
2017-Oct-21 17:00N 49°09' W 123°52'1 1.7
2017-Oct-21 16:30N 49°09' W 123°51'0 0.0
2017-Oct-21 15:51N 49°09' W 123°51'0 0.0
2017-Oct-21 15:11N 49°09' W 123°51'0 0.0
2017-Oct-21 15:00N 49°09' W 123°51'0 0.1
2017-Oct-21 13:55N 49°09' W 123°51'0 0.4
2017-Oct-21 13:29N 49°09' W 123°51'1 2.0
2017-Oct-21 13:01N 49°09' W 123°52'2 2.9
2017-Oct-21 12:27N 49°11' W 123°53'2 4.4
2017-Oct-21 11:58N 49°13' W 123°51'2 4.8
2017-Oct-21 11:29N 49°14' W 123°48'2 4.6
2017-Oct-21 11:00N 49°14' W 123°44'2 4.8
2017-Oct-21 10:30N 49°13' W 123°41'3 5.7
2017-Oct-21 09:59N 49°12' W 123°37'3 6.0
2017-Oct-21 09:30N 49°11' W 123°33'3 6.0
2017-Oct-21 09:00N 49°09' W 123°28'3 6.3
2017-Oct-21 08:29N 49°08' W 123°24'3 6.4
2017-Oct-21 08:00N 49°06' W 123°20'4 8.6
2017-Oct-21 07:30N 49°08' W 123°14'5 9.6
2017-Oct-21 07:00N 49°07' W 123°07'5 9.2
2017-Oct-21 06:30N 49°09' W 123°01'2 4.5
2017-Oct-21 05:59N 49°09' W 122°57'0 0.1
2017-Oct-21 05:30N 49°09' W 122°57'1 1.8
2017-Oct-21 04:59N 49°09' W 122°59'2 3.7
2017-Oct-21 04:30N 49°09' W 123°01'1 2.1
2017-Oct-21 04:00N 49°09' W 123°03'2 3.3
2017-Oct-21 03:30N 49°07' W 123°04'2 4.2
2017-Oct-21 03:00N 49°07' W 123°07'2 4.1
2017-Oct-21 02:30N 49°07' W 123°10'2 4.9
2017-Oct-21 02:00N 49°08' W 123°14'3 6.5
2017-Oct-21 01:28N 49°06' W 123°18'4 8.7
2017-Oct-21 01:00N 49°10' W 123°20'4 8.4
2017-Oct-21 00:30N 49°14' W 123°22'2 3.9
2017-Oct-21 00:00N 49°16' W 123°22'3 6.1
2017-Oct-20 23:30N 49°15' W 123°27'3 6.8
2017-Oct-20 22:59N 49°15' W 123°32'3 6.8
2017-Oct-20 22:30N 49°15' W 123°37'3 6.7
2017-Oct-20 22:00N 49°14' W 123°42'3 6.8
2017-Oct-20 21:30N 49°14' W 123°47'3 6.9
2017-Oct-20 21:01N 49°12' W 123°52'3 6.0
2017-Oct-20 20:30N 49°09' W 123°53'1 2.5
2017-Oct-20 20:00N 49°09' W 123°51'0 0.2
2017-Oct-20 19:28N 49°09' W 123°51'1 2.4
2017-Oct-20 19:00N 49°09' W 123°52'3 5.7
2017-Oct-20 18:30N 49°12' W 123°53'3 5.8
2017-Oct-20 17:59N 49°14' W 123°48'3 6.0
2017-Oct-20 17:29N 49°12' W 123°44'3 6.1
2017-Oct-20 16:59N 49°12' W 123°40'3 6.4
2017-Oct-20 16:30N 49°10' W 123°35'3 6.3
2017-Oct-20 16:00N 49°09' W 123°31'3 6.7
2017-Oct-20 15:30N 49°08' W 123°26'3 6.8
2017-Oct-20 14:59N 49°06' W 123°21'6 5.7
2017-Oct-20 14:00N 49°08' W 123°13'3 5.9
2017-Oct-20 13:30N 49°07' W 123°09'3 5.6
2017-Oct-20 13:00N 49°07' W 123°05'3 5.8
2017-Oct-20 12:30N 49°09' W 123°01'3 5.5
2017-Oct-20 12:00N 49°09' W 122°57'0 0.7
2017-Oct-20 11:29N 49°09' W 122°58'1 2.4
2017-Oct-20 11:00N 49°09' W 122°59'3 5.1
2017-Oct-20 10:30N 49°09' W 123°03'3 5.3
2017-Oct-20 10:00N 49°07' W 123°06'3 5.3
2017-Oct-20 09:29N 49°07' W 123°10'3 5.3
2017-Oct-20 09:00N 49°08' W 123°14'2 4.8
2017-Oct-20 08:29N 49°07' W 123°17'2 4.5
2017-Oct-20 08:00N 49°06' W 123°20'2 4.5
2017-Oct-20 07:30N 49°05' W 123°23'3 5.6
2017-Oct-20 07:00N 49°04' W 123°27'3 7.0
2017-Oct-20 06:30N 49°02' W 123°32'3 6.2
2017-Oct-20 06:00N 49°00' W 123°36'1 2.3
2017-Oct-20 05:29N 48°59' W 123°37'1 2.7
2017-Oct-20 04:59N 48°58' W 123°37'1 2.2
2017-Oct-20 04:30N 48°57' W 123°37'1 2.2
2017-Oct-20 04:00N 48°56' W 123°37'1 2.3
2017-Oct-20 03:29N 48°55' W 123°37'1 2.5
2017-Oct-20 03:00N 48°53' W 123°37'1 2.3
2017-Oct-20 02:30N 48°52' W 123°38'0 0.8
2017-Oct-20 02:01N 48°53' W 123°38'1 1.0
2017-Oct-20 01:31N 48°52' W 123°38'1 2.9
2017-Oct-20 01:00N 48°54' W 123°37'3 5.2
2017-Oct-20 00:30N 48°56' W 123°37'3 5.6
2017-Oct-20 00:00N 48°59' W 123°37'3 5.7
2017-Oct-19 23:30N 49°02' W 123°34'2 4.5
2017-Oct-19 23:00N 49°03' W 123°31'1 2.3
2017-Oct-19 22:30N 49°03' W 123°29'1 2.6
2017-Oct-19 22:00N 49°03' W 123°28'1 2.7
2017-Oct-19 21:30N 49°04' W 123°26'1 2.7
2017-Oct-19 21:00N 49°04' W 123°24'2 3.2
2017-Oct-19 20:30N 49°04' W 123°21'2 4.2
2017-Oct-19 20:00N 49°06' W 123°19'4 7.6
2017-Oct-19 19:30N 49°08' W 123°14'4 8.6
2017-Oct-19 19:00N 49°07' W 123°08'4 8.3
2017-Oct-19 18:30N 49°09' W 123°02'3 6.9
2017-Oct-19 18:01N 49°09' W 122°57'0 0.3
2017-Oct-19 17:30N 49°09' W 122°58'0 0.0
2017-Oct-19 17:00N 49°09' W 122°58'0 0.0
2017-Oct-19 16:30N 49°09' W 122°58'0 0.0
2017-Oct-19 15:59N 49°09' W 122°58'0 0.0
2017-Oct-19 14:45N 49°09' W 122°58'0 1.4
2017-Oct-19 14:29N 49°10' W 122°58'1 1.3
2017-Oct-19 14:00N 49°09' W 122°59'2 3.3
2017-Oct-19 13:30N 49°09' W 123°02'2 3.4
2017-Oct-19 13:00N 49°08' W 123°04'2 4.1
2017-Oct-19 12:29N 49°07' W 123°06'2 3.6
2017-Oct-19 11:58N 49°07' W 123°09'2 3.6
2017-Oct-19 11:30N 49°07' W 123°12'2 4.4
2017-Oct-19 11:00N 49°08' W 123°15'3 6.6
2017-Oct-19 10:30N 49°06' W 123°19'2 4.4
2017-Oct-19 10:00N 49°06' W 123°23'3 6.6
2017-Oct-19 09:30N 49°08' W 123°27'4 7.1
2017-Oct-19 09:00N 49°09' W 123°32'4 7.6
2017-Oct-19 08:28N 49°10' W 123°38'3 7.5
2017-Oct-19 08:00N 49°11' W 123°43'4 7.6
2017-Oct-19 07:30N 49°13' W 123°49'3 7.1
2017-Oct-19 07:00N 49°11' W 123°53'2 3.9
2017-Oct-19 06:29N 49°09' W 123°51'0 0.1
2017-Oct-19 05:59N 49°09' W 123°51'0 0.8
2017-Oct-19 05:30N 49°09' W 123°51'2 4.0
2017-Oct-19 05:00N 49°11' W 123°53'2 4.6
2017-Oct-19 04:30N 49°13' W 123°51'3 5.9
2017-Oct-19 04:00N 49°13' W 123°47'3 6.1
2017-Oct-19 03:30N 49°12' W 123°43'3 6.0
2017-Oct-19 03:00N 49°11' W 123°38'3 6.0
2017-Oct-19 02:30N 49°10' W 123°34'3 5.6
2017-Oct-19 02:00N 49°09' W 123°30'3 5.6
2017-Oct-19 01:29N 49°08' W 123°26'3 5.6
2017-Oct-19 01:00N 49°07' W 123°22'3 5.6
2017-Oct-19 00:30N 49°06' W 123°18'3 5.3
2017-Oct-19 00:00N 49°08' W 123°15'2 4.6
2017-Oct-18 23:30N 49°07' W 123°11'2 4.6
2017-Oct-18 23:00N 49°07' W 123°08'3 5.0
2017-Oct-18 22:30N 49°07' W 123°04'3 5.3
2017-Oct-18 22:00N 49°09' W 123°01'3 5.4
2017-Oct-18 21:30N 49°09' W 122°57'0 0.3
2017-Oct-18 20:59N 49°09' W 122°57'1 2.8
2017-Oct-18 20:30N 49°09' W 122°59'1 1.2
2017-Oct-18 19:58N 49°09' W 123°00'0 0.1
2017-Oct-18 19:28N 49°09' W 123°00'2 4.0
2017-Oct-18 19:00N 49°08' W 123°03'4 7.2
2017-Oct-18 18:30N 49°07' W 123°08'3 5.1
2017-Oct-18 17:58N 49°07' W 123°11'0 0.0
2017-Oct-18 17:29N 49°07' W 123°11'0 0.0
2017-Oct-18 17:00N 49°07' W 123°11'0 0.0
2017-Oct-18 16:30N 49°07' W 123°11'0 0.4
2017-Oct-18 16:01N 49°07' W 123°12'0 0.2
2017-Oct-18 15:30N 49°07' W 123°11'4 7.0
2017-Oct-18 15:00N 49°07' W 123°06'6 5.7
2017-Oct-18 13:59N 49°10' W 122°58'0 0.0
2017-Oct-18 13:30N 49°10' W 122°58'0 0.0
2017-Oct-18 13:00N 49°10' W 122°58'0 0.0
2017-Oct-18 12:27N 49°10' W 122°58'0 0.0
2017-Oct-18 12:00N 49°10' W 122°58'0 0.0
2017-Oct-18 11:30N 49°10' W 122°58'0 0.3
2017-Oct-18 11:00N 49°09' W 122°58'2 3.7
2017-Oct-18 10:30N 49°09' W 123°01'3 5.6
2017-Oct-18 10:00N 49°07' W 123°04'3 5.5
2017-Oct-18 09:29N 49°06' W 123°09'3 5.2
2017-Oct-18 09:00N 49°07' W 123°12'2 4.8
2017-Oct-18 08:30N 49°07' W 123°16'2 4.8
2017-Oct-18 08:00N 49°06' W 123°19'3 5.6
2017-Oct-18 07:30N 49°09' W 123°21'3 6.2
2017-Oct-18 07:00N 49°12' W 123°21'3 6.5
2017-Oct-18 06:30N 49°15' W 123°21'2 4.0
2017-Oct-18 06:00N 49°17' W 123°22'2 4.4
2017-Oct-18 05:30N 49°18' W 123°25'3 6.5
2017-Oct-18 05:00N 49°19' W 123°29'3 6.2
2017-Oct-18 04:30N 49°21' W 123°34'3 6.4
2017-Oct-18 04:00N 49°22' W 123°38'3 6.6
2017-Oct-18 03:30N 49°23' W 123°43'3 6.6
2017-Oct-18 03:00N 49°25' W 123°47'3 6.2
2017-Oct-18 02:30N 49°26' W 123°52'3 6.1
2017-Oct-18 02:00N 49°27' W 123°56'3 6.1
2017-Oct-18 01:30N 49°28' W 124°00'3 6.4
2017-Oct-18 01:00N 49°30' W 124°04'3 6.1
2017-Oct-18 00:30N 49°32' W 124°07'3 5.7
2017-Oct-18 00:00N 49°35' W 124°10'3 6.1
2017-Oct-17 23:30N 49°37' W 124°13'3 6.0
2017-Oct-17 23:00N 49°39' W 124°16'3 6.1
2017-Oct-17 22:30N 49°42' W 124°19'3 6.5
2017-Oct-17 22:00N 49°44' W 124°23'3 6.2
2017-Oct-17 21:30N 49°46' W 124°27'3 6.3
2017-Oct-17 21:00N 49°47' W 124°31'3 6.4
2017-Oct-17 20:30N 49°50' W 124°34'2 4.6
2017-Oct-17 20:00N 49°52' W 124°34'0 0.9
2017-Oct-17 19:30N 49°52' W 124°33'0 0.4
2017-Oct-17 19:00N 49°52' W 124°33'0 0.4
2017-Oct-17 18:30N 49°52' W 124°34'1 1.2
2017-Oct-17 18:00N 49°52' W 124°33'1 1.3
2017-Oct-17 17:30N 49°51' W 124°33'3 5.1
2017-Oct-17 17:00N 49°48' W 124°33'2 4.6
2017-Oct-17 16:30N 49°47' W 124°31'3 5.3
2017-Oct-17 16:00N 49°45' W 124°27'3 5.4
2017-Oct-17 15:30N 49°44' W 124°23'2 4.8
2017-Oct-17 15:00N 49°43' W 124°20'3 5.7
2017-Oct-17 14:30N 49°41' W 124°17'3 6.2
2017-Oct-17 14:00N 49°38' W 124°14'3 6.3
2017-Oct-17 13:30N 49°36' W 124°11'3 6.9
2017-Oct-17 13:00N 49°33' W 124°07'3 7.1
2017-Oct-17 12:30N 49°30' W 124°04'4 7.0
2017-Oct-17 12:00N 49°28' W 124°00'4 7.3
2017-Oct-17 11:30N 49°27' W 123°55'3 6.8
2017-Oct-17 11:00N 49°26' W 123°50'3 6.9
2017-Oct-17 10:30N 49°24' W 123°45'3 6.4
2017-Oct-17 10:00N 49°23' W 123°40'3 6.4
2017-Oct-17 09:30N 49°22' W 123°36'3 6.4
2017-Oct-17 09:00N 49°21' W 123°31'3 6.2
2017-Oct-17 08:30N 49°20' W 123°27'3 6.3
2017-Oct-17 08:00N 49°18' W 123°23'3 6.1
2017-Oct-17 07:31N 49°17' W 123°19'2 3.2
2017-Oct-17 07:00N 49°16' W 123°18'1 1.6
2017-Oct-17 06:30N 49°15' W 123°18'1 2.0
2017-Oct-17 06:00N 49°14' W 123°18'1 1.4
2017-Oct-17 05:30N 49°13' W 123°18'1 2.1
2017-Oct-17 05:00N 49°14' W 123°18'1 1.8
2017-Oct-17 04:30N 49°13' W 123°18'1 2.3
2017-Oct-17 04:00N 49°12' W 123°18'1 2.9
2017-Oct-17 03:30N 49°11' W 123°19'2 4.4
2017-Oct-17 03:00N 49°08' W 123°19'2 4.6
2017-Oct-17 02:30N 49°06' W 123°18'3 6.5
2017-Oct-17 02:00N 49°08' W 123°14'3 6.2
2017-Oct-17 01:30N 49°07' W 123°09'3 5.6
2017-Oct-17 01:00N 49°07' W 123°05'3 5.1
2017-Oct-17 00:30N 49°09' W 123°02'2 4.5
2017-Oct-17 00:00N 49°09' W 122°59'1 2.1
2017-Oct-16 23:31N 49°09' W 122°57'0 0.8
2017-Oct-16 23:00N 49°10' W 122°57'1 1.9
2017-Oct-16 22:30N 49°09' W 122°58'4 8.6
2017-Oct-16 22:00N 49°08' W 123°04'5 9.1
2017-Oct-16 21:30N 49°07' W 123°11'4 8.3
2017-Oct-16 21:00N 49°07' W 123°17'3 5.9
2017-Oct-16 20:30N 49°07' W 123°22'4 8.0
2017-Oct-16 20:00N 49°08' W 123°27'4 8.3
2017-Oct-16 19:30N 49°10' W 123°33'4 8.1
2017-Oct-16 19:00N 49°11' W 123°39'4 8.2
2017-Oct-16 18:30N 49°13' W 123°45'4 7.9
2017-Oct-16 18:00N 49°13' W 123°51'4 7.1
2017-Oct-16 17:30N 49°10' W 123°55'1 1.4
2017-Oct-16 17:01N 49°10' W 123°56'0 0.0
2017-Oct-16 16:30N 49°10' W 123°56'0 0.0
2017-Oct-16 16:00N 49°10' W 123°56'0 0.0
2017-Oct-16 15:30N 49°10' W 123°56'0 0.0
2017-Oct-16 15:00N 49°10' W 123°56'0 0.0
2017-Oct-16 14:30N 49°10' W 123°56'0 0.4
2017-Oct-16 13:31N 49°10' W 123°55'2 3.2
2017-Oct-16 13:00N 49°11' W 123°54'2 4.7
2017-Oct-16 12:29N 49°13' W 123°51'2 4.9
2017-Oct-16 12:00N 49°13' W 123°47'3 5.2
2017-Oct-16 11:30N 49°13' W 123°43'3 5.5
2017-Oct-16 11:00N 49°12' W 123°39'3 5.6
2017-Oct-16 10:30N 49°11' W 123°35'3 5.6
2017-Oct-16 10:00N 49°10' W 123°31'3 5.7
2017-Oct-16 09:30N 49°09' W 123°27'3 6.1
2017-Oct-16 09:00N 49°07' W 123°24'3 6.2
2017-Oct-16 08:30N 49°06' W 123°19'3 6.6
2017-Oct-16 08:00N 49°08' W 123°15'3 6.8
2017-Oct-16 07:30N 49°07' W 123°10'4 7.2
2017-Oct-16 07:00N 49°07' W 123°04'4 7.9
2017-Oct-16 06:31N 49°09' W 122°59'2 3.1
2017-Oct-16 06:00N 49°10' W 122°57'0 0.0
2017-Oct-16 05:30N 49°10' W 122°57'0 0.0
2017-Oct-16 05:00N 49°10' W 122°57'0 0.1
2017-Oct-16 04:30N 49°10' W 122°57'4 7.9
2017-Oct-16 04:00N 49°09' W 123°03'4 7.7
2017-Oct-16 03:30N 49°06' W 123°08'4 8.3
2017-Oct-16 03:00N 49°08' W 123°14'4 7.6
2017-Oct-16 02:31N 49°07' W 123°19'0 0.5
2017-Oct-16 02:00N 49°07' W 123°19'1 2.9
2017-Oct-16 01:30N 49°08' W 123°18'2 5.0
2017-Oct-16 01:01N 49°11' W 123°18'3 6.9
2017-Oct-16 00:30N 49°14' W 123°18'2 3.3
2017-Oct-16 00:00N 49°15' W 123°15'1 1.1
2017-Oct-15 23:29N 49°15' W 123°16'3 6.4
2017-Oct-15 23:00N 49°13' W 123°19'4 8.7
2017-Oct-15 22:30N 49°08' W 123°19'2 4.9
2017-Oct-15 22:00N 49°07' W 123°16'4 6.9
2017-Oct-15 21:30N 49°07' W 123°11'3 6.9
2017-Oct-15 21:00N 49°07' W 123°06'4 7.5
2017-Oct-15 20:30N 49°09' W 123°01'2 3.0
2017-Oct-15 19:51N 49°10' W 122°58'0 0.1
2017-Oct-15 19:30N 49°10' W 122°58'2 3.6
2017-Oct-15 19:00N 49°10' W 122°55'0 0.0
2017-Oct-15 18:30N 49°10' W 122°55'2 0.4
2017-Oct-15 13:57N 49°12' W 122°55'0 0.0
2017-Oct-15 13:30N 49°12' W 122°55'0 0.0
2017-Oct-15 13:00N 49°12' W 122°55'0 0.0
2017-Oct-15 12:29N 49°12' W 122°55'0 0.0
2017-Oct-15 12:00N 49°12' W 122°55'0 0.0
2017-Oct-15 11:30N 49°12' W 122°55'0 0.0
2017-Oct-15 08:10N 49°12' W 122°55'0 0.0
2017-Oct-15 07:57N 49°12' W 122°55'0 0.0
2017-Oct-15 07:26N 49°12' W 122°55'0 0.0
2017-Oct-15 06:52N 49°12' W 122°55'0 0.0
2017-Oct-15 06:27N 49°12' W 122°55'3 5.8
2017-Oct-15 06:00N 49°10' W 122°56'2 3.2
2017-Oct-15 05:30N 49°10' W 122°59'3 5.9
2017-Oct-15 05:00N 49°08' W 123°03'3 5.4
2017-Oct-15 04:30N 49°07' W 123°06'3 5.3
2017-Oct-15 04:00N 49°07' W 123°10'3 5.6
2017-Oct-15 03:30N 49°08' W 123°14'3 5.9
2017-Oct-15 03:00N 49°06' W 123°18'3 5.9
2017-Oct-15 02:28N 49°05' W 123°22'4 8.0
2017-Oct-15 02:00N 49°03' W 123°28'4 7.9
2017-Oct-15 01:30N 49°02' W 123°33'3 5.8
2017-Oct-15 01:00N 48°60' W 123°36'2 3.7
2017-Oct-15 00:30N 48°58' W 123°37'2 3.5
2017-Oct-15 00:00N 48°56' W 123°37'2 3.7
2017-Oct-14 23:30N 48°55' W 123°37'2 3.7
2017-Oct-14 23:01N 48°53' W 123°37'1 1.4
2017-Oct-14 22:31N 48°53' W 123°38'0 0.3
2017-Oct-14 22:00N 48°53' W 123°38'1 1.1
2017-Oct-14 21:30N 48°53' W 123°37'3 5.6
2017-Oct-14 21:00N 48°55' W 123°37'3 6.4
2017-Oct-14 20:30N 48°59' W 123°37'3 5.5
2017-Oct-14 20:01N 49°01' W 123°35'1 2.9
2017-Oct-14 19:30N 49°02' W 123°33'2 3.2
2017-Oct-14 19:00N 49°03' W 123°31'2 3.1
2017-Oct-14 18:30N 49°03' W 123°29'2 3.3
2017-Oct-14 18:00N 49°04' W 123°27'1 2.6
2017-Oct-14 17:30N 49°05' W 123°25'1 2.6
2017-Oct-14 17:00N 49°05' W 123°23'2 4.2
2017-Oct-14 16:30N 49°06' W 123°20'3 6.4
2017-Oct-14 16:00N 49°07' W 123°16'3 6.6
2017-Oct-14 15:30N 49°07' W 123°11'4 7.7
2017-Oct-14 15:00N 49°07' W 123°05'4 7.5
2017-Oct-14 14:30N 49°09' W 123°00'2 3.5
2017-Oct-14 14:00N 49°09' W 122°57'0 0.8
2017-Oct-14 13:27N 49°10' W 122°58'1 1.7
2017-Oct-14 13:00N 49°09' W 122°59'2 4.0
2017-Oct-14 12:30N 49°09' W 123°02'2 3.8
2017-Oct-14 12:00N 49°08' W 123°04'2 4.4
2017-Oct-14 11:30N 49°07' W 123°07'2 3.9
2017-Oct-14 10:59N 49°07' W 123°10'2 4.2
2017-Oct-14 10:30N 49°08' W 123°13'2 4.1
2017-Oct-14 10:00N 49°07' W 123°16'2 3.9
2017-Oct-14 09:29N 49°06' W 123°19'1 2.8
2017-Oct-14 09:00N 49°07' W 123°19'2 4.3
2017-Oct-14 08:30N 49°10' W 123°19'2 4.8
2017-Oct-14 08:00N 49°12' W 123°18'3 5.7
2017-Oct-14 07:31N 49°15' W 123°18'1 2.9
2017-Oct-14 07:00N 49°16' W 123°19'1 1.7
2017-Oct-14 06:30N 49°16' W 123°20'2 3.3
2017-Oct-14 06:00N 49°17' W 123°23'2 4.4
2017-Oct-14 05:30N 49°18' W 123°26'2 5.0
2017-Oct-14 05:00N 49°18' W 123°29'3 5.1
2017-Oct-14 04:30N 49°20' W 123°33'2 4.9
2017-Oct-14 04:00N 49°21' W 123°36'2 5.0
2017-Oct-14 03:30N 49°22' W 123°40'3 5.3
2017-Oct-14 03:00N 49°23' W 123°43'3 5.4
2017-Oct-14 02:30N 49°24' W 123°47'3 5.3
2017-Oct-14 02:00N 49°25' W 123°51'4 5.7
2017-Oct-14 01:22N 49°27' W 123°56'3 6.2
2017-Oct-14 00:51N 49°28' W 124°00'2 6.0
2017-Oct-14 00:30N 49°29' W 124°03'3 6.0
2017-Oct-14 00:00N 49°32' W 124°06'3 6.4
2017-Oct-13 23:28N 49°34' W 124°09'3 6.4
2017-Oct-13 23:00N 49°37' W 124°12'3 6.7
2017-Oct-13 22:30N 49°39' W 124°15'4 7.6
2017-Oct-13 22:00N 49°42' W 124°19'4 8.0
2017-Oct-13 21:30N 49°45' W 124°24'4 7.9
2017-Oct-13 21:00N 49°47' W 124°29'4 7.2
2017-Oct-13 20:30N 49°49' W 124°33'3 5.9
2017-Oct-13 20:00N 49°52' W 124°34'0 0.1
2017-Oct-13 17:42N 49°52' W 124°33'0 0.0
2017-Oct-13 17:27N 49°52' W 124°33'0 0.8
2017-Oct-13 17:00N 49°52' W 124°34'1 1.7
2017-Oct-13 16:30N 49°51' W 124°33'2 4.7
2017-Oct-13 16:00N 49°49' W 124°32'2 4.7
2017-Oct-13 15:30N 49°47' W 124°30'3 6.0
2017-Oct-13 15:00N 49°45' W 124°26'3 6.2
2017-Oct-13 14:30N 49°44' W 124°22'3 5.8
2017-Oct-13 14:00N 49°42' W 124°19'3 5.7
2017-Oct-13 13:30N 49°40' W 124°16'3 5.7
2017-Oct-13 13:00N 49°38' W 124°13'3 5.7
2017-Oct-13 12:30N 49°35' W 124°10'3 5.7
2017-Oct-13 12:00N 49°33' W 124°07'3 5.7
2017-Oct-13 11:30N 49°31' W 124°05'3 5.9
2017-Oct-13 11:00N 49°29' W 124°02'3 5.7
2017-Oct-13 10:30N 49°27' W 123°58'3 5.9
2017-Oct-13 10:00N 49°26' W 123°54'3 6.1
2017-Oct-13 09:30N 49°25' W 123°50'3 6.1
2017-Oct-13 09:00N 49°24' W 123°45'3 6.2
2017-Oct-13 08:30N 49°23' W 123°41'3 5.9
2017-Oct-13 08:00N 49°22' W 123°36'  

Dump ship's entire track history